This demonstration page uses our WeatherBlox Daily Observations layout. Learn more.

36.17497, -115.13722

Hourly Observations for February 8, 2018

Temp ( °F °C ) Dew Point ( °F °C ) Humidity (%) Winds ( mph kmh ) Pressure ( in mb ) Visibility ( mi km ) Precip ( " mm )
12:53 am 00:53 Clear 57 13.9 11 -11.7 16 16 NNW 12 19 30.32 1027 10 16.0934 0 0
1:53 am 01:53 Clear 55 12.8 12 -11.1 18 18 NNW 7 11 30.31 1027 10 16.0934 0 0
2:53 am 02:53 Clear 49 9.4 17 -8.3 28 28 SE 3 6 30.31 1026 10 16.0934 0 0
3:53 am 03:53 Clear 51 10.6 15 -9.4 24 24 W 5 7 30.3 1026 10 16.0934 0 0
4:53 am 04:53 Clear 50 10 15 -9.4 25 25 NW 7 11 30.3 1026 10 16.0934 0 0
5:53 am 05:53 Clear 53 11.7 14 -10 21 21 NNW 13 20 30.3 1026 10 16.0934 0 0
6:53 am 06:53 Sunny 51 10.6 16 -8.9 25 25 VRB 3 6 30.31 1027 10 16.0934 0 0
7:53 am 07:53 Sunny 55 12.8 16 -8.9 21 21 NNW 10 17 30.32 1027 10 16.0934 0 0
8:53 am 08:53 Sunny 60 15.6 17 -8.3 19 19 N 10 17 30.32 1027 10 16.0934 0 0
9:53 am 09:53 Sunny 64 17.8 18 -7.8 17 17 WNW 6 9 30.31 1026 10 16.0934 0 0
10:53 am 10:53 Sunny 67 19.4 17 -8.3 15 15 Calm 30.29 1026 10 16.0934 0 0
11:53 am 11:53 Sunny 68 20 19 -7.2 15 15 SE 3 6 30.24 1024 10 16.0934 0 0
12:53 pm 12:53 Sunny 70 21.1 21 -6.1 16 16 SE 7 11 30.2 1023 10 16.0934 0 0
1:53 pm 13:53 Sunny 71 21.7 19 -7.2 14 14 Calm 30.17 1022 10 16.0934 0 0
2:53 pm 14:53 Sunny 72 22.2 19 -7.2 13 13 Calm 30.15 1021 10 16.0934 0 0
3:53 pm 15:53 Sunny 73 22.8 19 -7.2 13 13 Calm 30.13 1020 10 16.0934 0 0
4:53 pm 16:53 Sunny 72 22.2 20 -6.7 14 14 Calm 30.12 1020 10 16.0934 0 0
5:53 pm 17:53 Clear 67 19.4 21 -6.1 17 17 Calm 30.13 1020 10 16.0934 0 0
6:53 pm 18:53 Clear 64 17.8 24 -4.4 22 22 WNW 7 11 30.14 1021 10 16.0934 0 0
7:53 pm 19:53 Clear 60 15.6 27 -2.8 28 28 NW 7 11 30.13 1020 10 16.0934 0 0
8:53 pm 20:53 Clear 58 14.4 26 -3.3 29 29 WNW 6 9 30.13 1020 10 16.0934 0 0
9:53 pm 21:53 Clear 57 13.9 27 -2.8 32 32 WNW 8 13 30.11 1020 10 16.0934 0 0
10:53 pm 22:53 Clear 57 13.9 25 -3.9 29 29 WNW 8 13 30.1 1019 10 16.0934 0 0
11:53 pm 23:53 Clear 59 15 21 -6.1 23 23 NW 9 15 30.09 1019 10 16.0934 0 0

Powered by AerisWeather